sensor_id;sensor_type;location;lat;lon;timestamp;pressure;altitude;pressure_sealevel;temperature;humidity
22031;BME280;11179;52.106;21.024;2023-04-29T00:00:33;100462.09;;;5.46;52.54
22031;BME280;11179;52.106;21.024;2023-04-29T00:02:59;100462.56;;;5.43;52.54
22031;BME280;11179;52.106;21.024;2023-04-29T00:05:25;100452.56;;;5.37;52.70
22031;BME280;11179;52.106;21.024;2023-04-29T00:07:51;100459.88;;;5.37;52.54
22031;BME280;11179;52.106;21.024;2023-04-29T00:10:16;100458.00;;;5.37;52.95
22031;BME280;11179;52.106;21.024;2023-04-29T00:12:42;100459.66;;;5.38;52.72
22031;BME280;11179;52.106;21.024;2023-04-29T00:15:07;100458.00;;;5.37;52.98
22031;BME280;11179;52.106;21.024;2023-04-29T00:17:33;100450.72;;;5.31;52.95
22031;BME280;11179;52.106;21.024;2023-04-29T00:19:59;100455.28;;;5.37;53.21
22031;BME280;11179;52.106;21.024;2023-04-29T00:22:24;100455.13;;;5.32;53.08
22031;BME280;11179;52.106;21.024;2023-04-29T00:24:49;100454.44;;;5.37;53.02
22031;BME280;11179;52.106;21.024;2023-04-29T00:27:15;100462.59;;;5.37;53.34
22031;BME280;11179;52.106;21.024;2023-04-29T00:29:42;100441.50;;;5.32;53.17
22031;BME280;11179;52.106;21.024;2023-04-29T00:32:07;100454.88;;;5.34;53.27
22031;BME280;11179;52.106;21.024;2023-04-29T00:34:32;100442.09;;;5.34;53.32
22031;BME280;11179;52.106;21.024;2023-04-29T00:36:58;100438.53;;;5.34;53.19
22031;BME280;11179;52.106;21.024;2023-04-29T00:39:23;100436.88;;;5.33;53.57
22031;BME280;11179;52.106;21.024;2023-04-29T00:41:49;100433.09;;;5.34;53.50
22031;BME280;11179;52.106;21.024;2023-04-29T00:44:14;100430.16;;;5.35;53.71
22031;BME280;11179;52.106;21.024;2023-04-29T00:46:40;100436.66;;;5.34;53.85
22031;BME280;11179;52.106;21.024;2023-04-29T00:49:06;100432.13;;;5.28;53.72
22031;BME280;11179;52.106;21.024;2023-04-29T00:51:33;100425.00;;;5.27;53.70
22031;BME280;11179;52.106;21.024;2023-04-29T00:53:58;100423.53;;;5.25;53.80
22031;BME280;11179;52.106;21.024;2023-04-29T00:56:24;100423.97;;;5.22;53.95
22031;BME280;11179;52.106;21.024;2023-04-29T00:58:50;100425.25;;;5.19;53.89
22031;BME280;11179;52.106;21.024;2023-04-29T01:01:20;100425.25;;;5.19;54.19
22031;BME280;11179;52.106;21.024;2023-04-29T01:03:46;100428.81;;;5.20;54.11
22031;BME280;11179;52.106;21.024;2023-04-29T01:06:29;100426.91;;;5.20;54.21
22031;BME280;11179;52.106;21.024;2023-04-29T01:12:01;100416.50;;;5.17;54.09
22031;BME280;11179;52.106;21.024;2023-04-29T01:14:32;100424.19;;;5.20;54.21
22031;BME280;11179;52.106;21.024;2023-04-29T01:17:03;100423.97;;;5.22;54.21
22031;BME280;11179;52.106;21.024;2023-04-29T01:22:14;100427.09;;;5.25;54.14
22031;BME280;11179;52.106;21.024;2023-04-29T01:24:41;100422.31;;;5.21;54.34
22031;BME280;11179;52.106;21.024;2023-04-29T01:27:20;100432.31;;;5.27;54.40
22031;BME280;11179;52.106;21.024;2023-04-29T01:32:36;100428.56;;;5.28;54.36
22031;BME280;11179;52.106;21.024;2023-04-29T01:38:21;100422.50;;;5.26;54.27
22031;BME280;11179;52.106;21.024;2023-04-29T01:40:58;100419.56;;;5.27;54.33
22031;BME280;11179;52.106;21.024;2023-04-29T01:43:29;100428.47;;;5.34;54.11
22031;BME280;11179;52.106;21.024;2023-04-29T01:45:55;100421.84;;;5.30;54.24
22031;BME280;11179;52.106;21.024;2023-04-29T01:48:22;100420.78;;;5.31;54.23
22031;BME280;11179;52.106;21.024;2023-04-29T01:50:48;100423.25;;;5.33;54.42
22031;BME280;11179;52.106;21.024;2023-04-29T01:53:13;100430.16;;;5.35;54.40
22031;BME280;11179;52.106;21.024;2023-04-29T01:55:39;100416.75;;;5.34;54.42
22031;BME280;11179;52.106;21.024;2023-04-29T01:58:04;100417.59;;;5.34;54.53
22031;BME280;11179;52.106;21.024;2023-04-29T02:00:30;100412.16;;;5.34;54.32
22031;BME280;11179;52.106;21.024;2023-04-29T02:02:55;100420.94;;;5.36;54.20
22031;BME280;11179;52.106;21.024;2023-04-29T02:05:20;100420.31;;;5.34;54.45
22031;BME280;11179;52.106;21.024;2023-04-29T02:07:46;100416.53;;;5.35;54.21
22031;BME280;11179;52.106;21.024;2023-04-29T02:10:12;100417.59;;;5.34;54.40
22031;BME280;11179;52.106;21.024;2023-04-29T02:12:37;100416.09;;;5.38;54.22
22031;BME280;11179;52.106;21.024;2023-04-29T02:15:03;100412.75;;;5.36;54.23
22031;BME280;11179;52.106;21.024;2023-04-29T02:17:28;100410.47;;;5.33;54.28
22031;BME280;11179;52.106;21.024;2023-04-29T02:19:54;100415.03;;;5.39;54.37
22031;BME280;11179;52.106;21.024;2023-04-29T02:22:20;100411.72;;;5.37;54.28
22031;BME280;11179;52.106;21.024;2023-04-29T02:24:45;100409.59;;;5.39;54.18
22031;BME280;11179;52.106;21.024;2023-04-29T02:27:10;100409.38;;;5.41;54.33
22031;BME280;11179;52.106;21.024;2023-04-29T02:29:36;100394.53;;;5.37;54.36
22031;BME280;11179;52.106;21.024;2023-04-29T02:32:01;100408.94;;;5.44;54.38
22031;BME280;11179;52.106;21.024;2023-04-29T02:34:26;100401.59;;;5.44;54.21
22031;BME280;11179;52.106;21.024;2023-04-29T02:36:52;100395.69;;;5.47;54.04
22031;BME280;11179;52.106;21.024;2023-04-29T02:39:17;100405.31;;;5.50;54.17
22031;BME280;11179;52.106;21.024;2023-04-29T02:41:44;100408.41;;;5.54;54.15
22031;BME280;11179;52.106;21.024;2023-04-29T02:44:09;100400.25;;;5.54;54.20
22031;BME280;11179;52.106;21.024;2023-04-29T02:46:35;100392.13;;;5.47;54.21
22031;BME280;11179;52.106;21.024;2023-04-29T02:49:01;100394.03;;;5.46;53.87
22031;BME280;11179;52.106;21.024;2023-04-29T02:51:27;100397.34;;;5.48;54.29
22031;BME280;11179;52.106;21.024;2023-04-29T02:53:53;100390.25;;;5.47;53.89
22031;BME280;11179;52.106;21.024;2023-04-29T02:56:18;100393.56;;;5.49;53.78
22031;BME280;11179;52.106;21.024;2023-04-29T02:58:44;100398.59;;;5.53;53.88
22031;BME280;11179;52.106;21.024;2023-04-29T03:01:09;100387.50;;;5.47;53.69
22031;BME280;11179;52.106;21.024;2023-04-29T03:03:35;100388.34;;;5.48;54.02
22031;BME280;11179;52.106;21.024;2023-04-29T03:06:00;100383.97;;;5.47;53.92
22031;BME280;11179;52.106;21.024;2023-04-29T03:08:26;100391.84;;;5.55;53.77
22031;BME280;11179;52.106;21.024;2023-04-29T03:10:52;100390.94;;;5.61;53.79
22031;BME280;11179;52.106;21.024;2023-04-29T03:13:17;100387.84;;;5.58;53.77
22031;BME280;11179;52.106;21.024;2023-04-29T03:15:43;100371.34;;;5.53;53.66
22031;BME280;11179;52.106;21.024;2023-04-29T03:18:08;100375.53;;;5.55;53.69
22031;BME280;11179;52.106;21.024;2023-04-29T03:20:33;100388.09;;;5.56;53.77
22031;BME280;11179;52.106;21.024;2023-04-29T03:22:59;100387.84;;;5.58;53.67
22031;BME280;11179;52.106;21.024;2023-04-29T03:25:25;100377.78;;;5.58;53.64
22031;BME280;11179;52.106;21.024;2023-04-29T03:27:50;100387.56;;;5.66;53.63
22031;BME280;11179;52.106;21.024;2023-04-29T03:30:15;100384.44;;;5.62;53.87
22031;BME280;11179;52.106;21.024;2023-04-29T03:32:41;100386.72;;;5.65;53.54
22031;BME280;11179;52.106;21.024;2023-04-29T03:35:07;100389.84;;;5.69;53.64
22031;BME280;11179;52.106;21.024;2023-04-29T03:37:32;100373.75;;;5.61;53.70
22031;BME280;11179;52.106;21.024;2023-04-29T03:39:58;100384.81;;;5.66;53.43
22031;BME280;11179;52.106;21.024;2023-04-29T03:42:23;100367.47;;;5.60;53.57
22031;BME280;11179;52.106;21.024;2023-04-29T03:44:48;100383.94;;;5.72;53.64
22031;BME280;11179;52.106;21.024;2023-04-29T03:47:14;100384.06;;;5.77;53.50
22031;BME280;11179;52.106;21.024;2023-04-29T03:49:39;100382.78;;;5.79;53.22
22031;BME280;11179;52.106;21.024;2023-04-29T03:52:05;100384.84;;;5.84;53.32
22031;BME280;11179;52.106;21.024;2023-04-29T03:54:30;100378.91;;;5.87;53.07
22031;BME280;11179;52.106;21.024;2023-04-29T03:56:56;100391.34;;;6.01;53.31
22031;BME280;11179;52.106;21.024;2023-04-29T03:59:21;100381.28;;;6.02;53.09
22031;BME280;11179;52.106;21.024;2023-04-29T04:01:46;100372.63;;;6.05;53.08
22031;BME280;11179;52.106;21.024;2023-04-29T04:04:12;100391.34;;;6.19;52.92
22031;BME280;11179;52.106;21.024;2023-04-29T04:06:37;100385.22;;;6.24;52.75
22031;BME280;11179;52.106;21.024;2023-04-29T04:09:03;100383.22;;;6.31;52.61
22031;BME280;11179;52.106;21.024;2023-04-29T04:11:28;100381.63;;;6.42;52.33
22031;BME280;11179;52.106;21.024;2023-04-29T04:13:53;100378.72;;;6.55;52.19
22031;BME280;11179;52.106;21.024;2023-04-29T04:16:19;100387.53;;;6.69;52.13
22031;BME280;11179;52.106;21.024;2023-04-29T04:18:44;100384.50;;;6.77;51.98
22031;BME280;11179;52.106;21.024;2023-04-29T04:21:11;100380.84;;;6.94;51.35
22031;BME280;11179;52.106;21.024;2023-04-29T04:23:37;100371.59;;;7.07;51.30
22031;BME280;11179;52.106;21.024;2023-04-29T04:26:06;100368.66;;;7.20;51.08
22031;BME280;11179;52.106;21.024;2023-04-29T04:28:32;100364.53;;;7.29;50.80
22031;BME280;11179;52.106;21.024;2023-04-29T04:30:57;100379.84;;;7.42;50.57
22031;BME280;11179;52.106;21.024;2023-04-29T04:33:24;100372.56;;;7.59;50.29
22031;BME280;11179;52.106;21.024;2023-04-29T04:35:49;100371.25;;;7.85;50.09
22031;BME280;11179;52.106;21.024;2023-04-29T04:38:14;100366.22;;;8.06;49.40
22031;BME280;11179;52.106;21.024;2023-04-29T04:40:40;100363.19;;;8.30;49.17
22031;BME280;11179;52.106;21.024;2023-04-29T04:43:06;100368.19;;;8.62;48.93
22031;BME280;11179;52.106;21.024;2023-04-29T04:45:31;100366.50;;;8.89;48.33
22031;BME280;11179;52.106;21.024;2023-04-29T04:47:57;100361.19;;;9.16;47.91
22031;BME280;11179;52.106;21.024;2023-04-29T04:50:22;100361.41;;;9.48;47.60
22031;BME280;11179;52.106;21.024;2023-04-29T04:52:47;100348.69;;;9.75;46.78
22031;BME280;11179;52.106;21.024;2023-04-29T04:55:13;100354.56;;;10.06;46.46
22031;BME280;11179;52.106;21.024;2023-04-29T04:57:38;100356.59;;;10.37;45.98
22031;BME280;11179;52.106;21.024;2023-04-29T05:00:04;100356.81;;;10.58;45.81
22031;BME280;11179;52.106;21.024;2023-04-29T05:02:29;100358.00;;;10.67;44.72
22031;BME280;11179;52.106;21.024;2023-04-29T05:04:55;100365.81;;;10.80;45.12
22031;BME280;11179;52.106;21.024;2023-04-29T05:07:20;100361.56;;;10.94;44.80
22031;BME280;11179;52.106;21.024;2023-04-29T05:09:46;100366.63;;;11.07;44.25
22031;BME280;11179;52.106;21.024;2023-04-29T05:12:11;100359.38;;;10.96;43.94
22031;BME280;11179;52.106;21.024;2023-04-29T05:14:37;100345.41;;;10.71;43.72
22031;BME280;11179;52.106;21.024;2023-04-29T05:17:02;100359.91;;;10.93;43.53
22031;BME280;11179;52.106;21.024;2023-04-29T05:19:27;100357.56;;;11.39;43.16
22031;BME280;11179;52.106;21.024;2023-04-29T05:21:53;100347.97;;;11.88;42.72
22031;BME280;11179;52.106;21.024;2023-04-29T05:24:18;100341.81;;;12.23;42.08
22031;BME280;11179;52.106;21.024;2023-04-29T05:26:44;100346.56;;;12.43;42.15
22031;BME280;11179;52.106;21.024;2023-04-29T05:29:10;100348.56;;;12.68;41.33
22031;BME280;11179;52.106;21.024;2023-04-29T05:31:36;100340.00;;;12.49;40.84
22031;BME280;11179;52.106;21.024;2023-04-29T05:34:02;100345.75;;;12.48;40.81
22031;BME280;11179;52.106;21.024;2023-04-29T05:36:28;100342.78;;;12.65;40.82
22031;BME280;11179;52.106;21.024;2023-04-29T05:38:53;100336.97;;;12.61;40.23
22031;BME280;11179;52.106;21.024;2023-04-29T05:41:19;100340.56;;;12.67;40.74
22031;BME280;11179;52.106;21.024;2023-04-29T05:43:45;100338.94;;;12.76;40.58
22031;BME280;11179;52.106;21.024;2023-04-29T05:46:10;100344.47;;;12.86;40.24
22031;BME280;11179;52.106;21.024;2023-04-29T05:48:35;100345.28;;;12.96;39.58
22031;BME280;11179;52.106;21.024;2023-04-29T05:51:01;100332.34;;;13.17;39.22
22031;BME280;11179;52.106;21.024;2023-04-29T05:53:26;100339.75;;;13.47;38.52
22031;BME280;11179;52.106;21.024;2023-04-29T05:55:51;100338.56;;;13.94;38.56
22031;BME280;11179;52.106;21.024;2023-04-29T05:58:17;100335.91;;;14.33;37.82
22031;BME280;11179;52.106;21.024;2023-04-29T06:00:42;100332.53;;;14.41;36.93
22031;BME280;11179;52.106;21.024;2023-04-29T06:03:09;100334.41;;;14.56;36.88
22031;BME280;11179;52.106;21.024;2023-04-29T06:05:35;100323.28;;;14.71;36.55
22031;BME280;11179;52.106;21.024;2023-04-29T06:08:01;100317.75;;;14.71;36.29
22031;BME280;11179;52.106;21.024;2023-04-29T06:10:27;100334.34;;;15.05;35.81
22031;BME280;11179;52.106;21.024;2023-04-29T06:12:52;100336.22;;;15.15;35.30
22031;BME280;11179;52.106;21.024;2023-04-29T06:15:18;100338.47;;;15.41;34.99
22031;BME280;11179;52.106;21.024;2023-04-29T06:17:43;100333.44;;;15.77;34.94
22031;BME280;11179;52.106;21.024;2023-04-29T06:20:09;100324.06;;;15.73;34.14
22031;BME280;11179;52.106;21.024;2023-04-29T06:22:35;100324.47;;;16.09;33.88
22031;BME280;11179;52.106;21.024;2023-04-29T06:25:00;100318.91;;;16.52;34.14
22031;BME280;11179;52.106;21.024;2023-04-29T06:27:26;100330.47;;;16.78;33.10
22031;BME280;11179;52.106;21.024;2023-04-29T06:29:52;100321.56;;;16.62;32.73
22031;BME280;11179;52.106;21.024;2023-04-29T06:32:17;100332.66;;;16.81;32.93
22031;BME280;11179;52.106;21.024;2023-04-29T06:34:43;100323.63;;;17.08;32.67
22031;BME280;11179;52.106;21.024;2023-04-29T06:37:09;100329.69;;;17.42;32.82
22031;BME280;11179;52.106;21.024;2023-04-29T06:39:35;100315.16;;;17.64;31.60
22031;BME280;11179;52.106;21.024;2023-04-29T06:42:00;100325.47;;;17.91;31.69
22031;BME280;11179;52.106;21.024;2023-04-29T06:44:26;100321.66;;;17.87;30.97
22031;BME280;11179;52.106;21.024;2023-04-29T06:46:51;100318.56;;;18.02;31.02
22031;BME280;11179;52.106;21.024;2023-04-29T06:49:17;100315.88;;;18.24;31.11
22031;BME280;11179;52.106;21.024;2023-04-29T06:51:42;100320.94;;;18.36;30.87
22031;BME280;11179;52.106;21.024;2023-04-29T06:54:08;100315.97;;;18.33;30.70
22031;BME280;11179;52.106;21.024;2023-04-29T06:56:33;100321.34;;;18.16;30.59
22031;BME280;11179;52.106;21.024;2023-04-29T06:58:58;100314.63;;;18.31;30.71
22031;BME280;11179;52.106;21.024;2023-04-29T07:01:24;100317.41;;;18.44;30.55
22031;BME280;11179;52.106;21.024;2023-04-29T07:03:49;100308.34;;;18.39;30.22
22031;BME280;11179;52.106;21.024;2023-04-29T07:06:15;100312.34;;;18.60;30.22
22031;BME280;11179;52.106;21.024;2023-04-29T07:08:40;100314.63;;;18.80;30.10
22031;BME280;11179;52.106;21.024;2023-04-29T07:11:05;100313.75;;;18.71;29.61
22031;BME280;11179;52.106;21.024;2023-04-29T07:13:30;100307.75;;;18.14;30.00
22031;BME280;11179;52.106;21.024;2023-04-29T07:15:56;100303.22;;;17.64;30.18
22031;BME280;11179;52.106;21.024;2023-04-29T07:18:21;100319.56;;;17.51;30.50
22031;BME280;11179;52.106;21.024;2023-04-29T07:20:47;100315.16;;;17.32;30.75
22031;BME280;11179;52.106;21.024;2023-04-29T07:23:13;100311.38;;;17.28;31.05
22031;BME280;11179;52.106;21.024;2023-04-29T07:25:39;100306.19;;;17.21;31.19
22031;BME280;11179;52.106;21.024;2023-04-29T07:28:05;100303.00;;;17.14;31.21
22031;BME280;11179;52.106;21.024;2023-04-29T07:30:30;100305.84;;;17.09;31.64
22031;BME280;11179;52.106;21.024;2023-04-29T07:32:56;100299.81;;;17.20;31.65
22031;BME280;11179;52.106;21.024;2023-04-29T07:35:21;100303.56;;;17.30;31.46
22031;BME280;11179;52.106;21.024;2023-04-29T07:37:47;100302.63;;;17.67;31.53
22031;BME280;11179;52.106;21.024;2023-04-29T07:40:12;100299.53;;;18.37;30.78
22031;BME280;11179;52.106;21.024;2023-04-29T07:42:37;100311.91;;;18.67;30.13
22031;BME280;11179;52.106;21.024;2023-04-29T07:45:03;100300.53;;;18.41;30.06
22031;BME280;11179;52.106;21.024;2023-04-29T07:47:29;100303.22;;;18.18;30.41
22031;BME280;11179;52.106;21.024;2023-04-29T07:49:55;100299.03;;;18.07;30.75
22031;BME280;11179;52.106;21.024;2023-04-29T07:52:21;100307.75;;;18.14;30.10
22031;BME280;11179;52.106;21.024;2023-04-29T07:54:47;100312.38;;;18.33;30.41
22031;BME280;11179;52.106;21.024;2023-04-29T07:57:12;100298.88;;;18.40;30.13
22031;BME280;11179;52.106;21.024;2023-04-29T07:59:37;100309.91;;;18.45;29.80
22031;BME280;11179;52.106;21.024;2023-04-29T08:02:03;100313.69;;;18.62;29.94
22031;BME280;11179;52.106;21.024;2023-04-29T08:04:29;100312.69;;;18.81;29.69
22031;BME280;11179;52.106;21.024;2023-04-29T08:06:54;100306.81;;;18.82;29.64
22031;BME280;11179;52.106;21.024;2023-04-29T08:09:20;100308.84;;;19.13;30.16
22031;BME280;11179;52.106;21.024;2023-04-29T08:11:45;100320.59;;;19.32;29.14
22031;BME280;11179;52.106;21.024;2023-04-29T08:14:10;100312.25;;;19.32;29.13
22031;BME280;11179;52.106;21.024;2023-04-29T08:16:36;100303.75;;;19.28;29.28
22031;BME280;11179;52.106;21.024;2023-04-29T08:19:01;100304.00;;;19.49;29.30
22031;BME280;11179;52.106;21.024;2023-04-29T08:21:27;100313.69;;;19.83;29.20
22031;BME280;11179;52.106;21.024;2023-04-29T08:23:52;100309.53;;;20.11;29.00
22031;BME280;11179;52.106;21.024;2023-04-29T08:26:18;100317.81;;;20.33;28.43
22031;BME280;11179;52.106;21.024;2023-04-29T08:28:43;100298.00;;;20.61;28.26
22031;BME280;11179;52.106;21.024;2023-04-29T08:31:16;100306.50;;;20.64;28.67
22031;BME280;11179;52.106;21.024;2023-04-29T08:33:42;100306.38;;;20.61;27.55
22031;BME280;11179;52.106;21.024;2023-04-29T08:36:08;100305.66;;;20.38;27.38
22031;BME280;11179;52.106;21.024;2023-04-29T08:38:33;100304.97;;;19.84;27.38
22031;BME280;11179;52.106;21.024;2023-04-29T08:41:00;100289.88;;;19.77;27.76
22031;BME280;11179;52.106;21.024;2023-04-29T08:43:26;100310.50;;;19.67;27.29
22031;BME280;11179;52.106;21.024;2023-04-29T08:45:51;100304.00;;;19.49;27.62
22031;BME280;11179;52.106;21.024;2023-04-29T08:48:17;100304.41;;;19.56;27.61
22031;BME280;11179;52.106;21.024;2023-04-29T08:50:43;100320.75;;;19.58;27.86
22031;BME280;11179;52.106;21.024;2023-04-29T08:53:10;100310.69;;;19.40;27.87
22031;BME280;11179;52.106;21.024;2023-04-29T08:58:06;100301.75;;;19.07;28.35
22031;BME280;11179;52.106;21.024;2023-04-29T09:00:31;100300.66;;;19.30;29.00
22031;BME280;11179;52.106;21.024;2023-04-29T09:02:59;100292.97;;;19.66;28.36
22031;BME280;11179;52.106;21.024;2023-04-29T09:05:25;100299.25;;;19.81;29.04
22031;BME280;11179;52.106;21.024;2023-04-29T09:07:51;100286.59;;;19.75;28.31
22031;BME280;11179;52.106;21.024;2023-04-29T09:10:17;100287.69;;;19.56;28.63
22031;BME280;11179;52.106;21.024;2023-04-29T09:12:43;100298.59;;;19.22;28.62
22031;BME280;11179;52.106;21.024;2023-04-29T09:15:10;100286.13;;;18.97;29.01
22031;BME280;11179;52.106;21.024;2023-04-29T09:17:44;100290.16;;;18.91;29.45
22031;BME280;11179;52.106;21.024;2023-04-29T09:22:52;100290.78;;;19.24;29.23
22031;BME280;11179;52.106;21.024;2023-04-29T09:25:18;100297.97;;;19.25;29.16
22031;BME280;11179;52.106;21.024;2023-04-29T09:27:44;100298.03;;;19.11;29.23
22031;BME280;11179;52.106;21.024;2023-04-29T09:30:10;100274.94;;;19.11;29.45
22031;BME280;11179;52.106;21.024;2023-04-29T09:32:41;100292.97;;;19.13;28.84
22031;BME280;11179;52.106;21.024;2023-04-29T09:35:38;100292.38;;;18.80;28.90
22031;BME280;11179;52.106;21.024;2023-04-29T09:38:10;100279.13;;;18.77;29.31
22031;BME280;11179;52.106;21.024;2023-04-29T09:40:36;100276.06;;;18.65;28.45
22031;BME280;11179;52.106;21.024;2023-04-29T09:43:01;100267.44;;;18.53;29.73
22031;BME280;11179;52.106;21.024;2023-04-29T09:45:36;100269.25;;;18.93;29.63
22031;BME280;11179;52.106;21.024;2023-04-29T09:48:03;100279.25;;;19.17;29.59
22031;BME280;11179;52.106;21.024;2023-04-29T09:50:30;100260.69;;;19.34;29.08
22031;BME280;11179;52.106;21.024;2023-04-29T09:52:56;100253.56;;;19.51;29.09
22031;BME280;11179;52.106;21.024;2023-04-29T09:55:22;100254.22;;;19.48;29.38
22031;BME280;11179;52.106;21.024;2023-04-29T09:57:47;100252.88;;;19.45;29.27
22031;BME280;11179;52.106;21.024;2023-04-29T10:00:14;100253.88;;;19.49;28.88
22031;BME280;11179;52.106;21.024;2023-04-29T10:02:45;100244.41;;;19.50;28.93
22031;BME280;11179;52.106;21.024;2023-04-29T10:05:13;100254.41;;;19.51;28.81
22031;BME280;11179;52.106;21.024;2023-04-29T10:07:40;100244.75;;;19.57;28.64
22031;BME280;11179;52.106;21.024;2023-04-29T10:10:06;100253.78;;;19.32;28.50
22031;BME280;11179;52.106;21.024;2023-04-29T10:12:34;100247.00;;;19.16;29.45
22031;BME280;11179;52.106;21.024;2023-04-29T10:17:39;100243.13;;;19.25;29.15
22031;BME280;11179;52.106;21.024;2023-04-29T10:20:08;100215.81;;;19.27;29.21
22031;BME280;11179;52.106;21.024;2023-04-29T10:22:45;100235.00;;;19.38;29.24
22031;BME280;11179;52.106;21.024;2023-04-29T10:25:14;100232.75;;;19.48;29.45
22031;BME280;11179;52.106;21.024;2023-04-29T10:27:43;100234.31;;;19.72;29.17
22031;BME280;11179;52.106;21.024;2023-04-29T10:30:16;100235.38;;;19.93;29.34
22031;BME280;11179;52.106;21.024;2023-04-29T10:32:47;100227.78;;;19.85;28.62
22031;BME280;11179;52.106;21.024;2023-04-29T10:35:14;100224.84;;;19.11;29.14
22031;BME280;11179;52.106;21.024;2023-04-29T10:37:41;100224.81;;;18.80;29.92
22031;BME280;11179;52.106;21.024;2023-04-29T10:42:52;100221.59;;;18.86;30.39
22031;BME280;11179;52.106;21.024;2023-04-29T10:53:03;100208.34;;;19.45;30.11
22031;BME280;11179;52.106;21.024;2023-04-29T10:55:29;100199.66;;;19.47;30.18
22031;BME280;11179;52.106;21.024;2023-04-29T10:57:55;100210.19;;;19.58;30.21
22031;BME280;11179;52.106;21.024;2023-04-29T11:00:29;100199.41;;;19.74;30.45
22031;BME280;11179;52.106;21.024;2023-04-29T11:02:55;100206.69;;;19.92;29.90
22031;BME280;11179;52.106;21.024;2023-04-29T11:05:34;100188.28;;;19.74;29.41
22031;BME280;11179;52.106;21.024;2023-04-29T11:08:19;100208.00;;;19.47;29.62
22031;BME280;11179;52.106;21.024;2023-04-29T11:10:51;100196.25;;;19.50;29.90
22031;BME280;11179;52.106;21.024;2023-04-29T11:13:23;100184.03;;;19.28;29.58
22031;BME280;11179;52.106;21.024;2023-04-29T11:16:13;100191.31;;;18.85;30.22
22031;BME280;11179;52.106;21.024;2023-04-29T11:19:04;100193.41;;;18.57;30.57
22031;BME280;11179;52.106;21.024;2023-04-29T11:21:30;100190.94;;;18.55;30.75
22031;BME280;11179;52.106;21.024;2023-04-29T11:23:56;100195.59;;;18.69;31.80
22031;BME280;11179;52.106;21.024;2023-04-29T11:26:23;100190.00;;;18.60;31.84
22031;BME280;11179;52.106;21.024;2023-04-29T11:28:50;100201.38;;;18.50;31.23
22031;BME280;11179;52.106;21.024;2023-04-29T11:31:16;100204.38;;;18.40;31.60
22031;BME280;11179;52.106;21.024;2023-04-29T11:33:41;100186.72;;;18.36;31.45
22031;BME280;11179;52.106;21.024;2023-04-29T11:36:08;100191.00;;;18.28;31.33
22031;BME280;11179;52.106;21.024;2023-04-29T11:38:38;100188.53;;;18.26;31.27
22031;BME280;11179;52.106;21.024;2023-04-29T11:41:04;100188.47;;;18.54;31.76
22031;BME280;11179;52.106;21.024;2023-04-29T11:43:29;100186.75;;;18.67;31.25
22031;BME280;11179;52.106;21.024;2023-04-29T11:45:54;100181.69;;;18.69;31.26
22031;BME280;11179;52.106;21.024;2023-04-29T11:48:22;100160.47;;;18.73;31.17
22031;BME280;11179;52.106;21.024;2023-04-29T11:50:58;100171.09;;;18.71;31.34
22031;BME280;11179;52.106;21.024;2023-04-29T11:53:25;100173.00;;;18.92;31.70
22031;BME280;11179;52.106;21.024;2023-04-29T11:55:52;100161.63;;;19.03;31.95
22031;BME280;11179;52.106;21.024;2023-04-29T11:58:20;100171.72;;;18.90;31.75
22031;BME280;11179;52.106;21.024;2023-04-29T12:00:49;100178.84;;;18.82;30.93
22031;BME280;11179;52.106;21.024;2023-04-29T12:03:16;100179.63;;;18.74;31.32
22031;BME280;11179;52.106;21.024;2023-04-29T12:05:47;100158.59;;;18.59;31.96
22031;BME280;11179;52.106;21.024;2023-04-29T12:08:13;100159.34;;;18.74;31.60
22031;BME280;11179;52.106;21.024;2023-04-29T12:10:40;100164.81;;;18.87;32.52
22031;BME280;11179;52.106;21.024;2023-04-29T12:13:05;100164.84;;;18.96;31.65
22031;BME280;11179;52.106;21.024;2023-04-29T12:15:31;100156.91;;;18.81;31.58
22031;BME280;11179;52.106;21.024;2023-04-29T12:17:57;100173.28;;;18.82;31.83
22031;BME280;11179;52.106;21.024;2023-04-29T12:20:22;100147.44;;;18.82;31.70
22031;BME280;11179;52.106;21.024;2023-04-29T12:22:48;100150.53;;;18.80;31.55
22031;BME280;11179;52.106;21.024;2023-04-29T12:25:14;100152.13;;;18.73;31.67
22031;BME280;11179;52.106;21.024;2023-04-29T12:27:40;100143.47;;;18.74;32.18
22031;BME280;11179;52.106;21.024;2023-04-29T12:30:09;100140.38;;;18.76;31.70
22031;BME280;11179;52.106;21.024;2023-04-29T12:32:34;100151.69;;;18.57;31.20
22031;BME280;11179;52.106;21.024;2023-04-29T12:35:00;100144.59;;;18.51;31.87
22031;BME280;11179;52.106;21.024;2023-04-29T12:37:26;100140.19;;;18.72;32.47
22031;BME280;11179;52.106;21.024;2023-04-29T12:39:53;100150.78;;;18.70;31.65
22031;BME280;11179;52.106;21.024;2023-04-29T12:42:19;100140.81;;;18.69;31.66
22031;BME280;11179;52.106;21.024;2023-04-29T12:44:45;100141.63;;;18.70;31.55
22031;BME280;11179;52.106;21.024;2023-04-29T12:47:14;100141.34;;;18.80;32.02
22031;BME280;11179;52.106;21.024;2023-04-29T12:49:41;100145.34;;;18.87;31.77
22031;BME280;11179;52.106;21.024;2023-04-29T12:52:07;100142.00;;;19.08;32.27
22031;BME280;11179;52.106;21.024;2023-04-29T12:54:40;100131.88;;;19.12;31.47
22031;BME280;11179;52.106;21.024;2023-04-29T12:57:10;100123.16;;;19.05;31.62
22031;BME280;11179;52.106;21.024;2023-04-29T12:59:36;100126.84;;;18.91;31.58
22031;BME280;11179;52.106;21.024;2023-04-29T13:02:01;100119.28;;;18.83;31.47
22031;BME280;11179;52.106;21.024;2023-04-29T13:04:27;100109.19;;;18.87;31.99
22031;BME280;11179;52.106;21.024;2023-04-29T13:06:52;100129.28;;;18.84;31.56
22031;BME280;11179;52.106;21.024;2023-04-29T13:09:24;100123.31;;;18.69;31.58